Allendale, MI (49401)

13:18 EDT le 27 Mars 2015 (GMT -0400)
Tallmadge Township | | Change Station
CLOSE
Current Station
Stations météorologiques personnelles
Location: Marne, MI
Altitude: 682 ft
Stations météo à proximité

Alt. 682 ft 42.99 °N, 85.81 °W | Updated 3 minutes ago

Partiellement nuageux
Partiellement nuageux
24.4 ° F
Paraît 16 ° F
N
8.0
Vent Variable Vent de NNO
Gusts 14.0 mph

Aujourd'hui
Haut(e) -- | Bas -- ° F
--% Risque de précip.
Hier
Haut(e) -- | Bas -- ° F
Precip. -- pouce
7:35 AM 8:03 PM
Premier quartier, 54% visible
Pression 30.14 pouce
Visibilité 10.0 Miles terrestres
Nuages Ciel dégagé
Refroidissement éolien 16 ° F
Point de rosée 7 ° F
Humidité 46%
Précipitations 0.00 pouce
Profondeur de la couche neigeuse Non disponible.
UV 7 sur 12
Pollen .70 sur 12
Qualité de l'air Non disponible.
Flu Activity Non disponible.
METAR KBIV 271653Z AUTO 33009G17KT 10SM CLR M02/M16 A3011 RMK AO2 SLP207 T10171156

More Conditions Fewer Conditions

Pression 30.14 pouce
Visibilité 10.0 Miles terrestres
Nuages Ciel dégagé
Refroidissement éolien 16 ° F
Point de rosée 7 ° F
Humidité 46%
Précipitations 0.00 pouce
Profondeur de la couche neigeuse Non disponible.
UV 7 sur 12
Pollen .70 sur 12
Qualité de l'air Non disponible.
Flu Activity Non disponible.
METAR KBIV 271653Z AUTO 33009G17KT 10SM CLR M02/M16 A3011 RMK AO2 SLP207 T10171156

More Conditions Fewer Conditions

10-Day Weather Forecast

Almanac

Astronomie

Mar. 27, 2015 Lever Coucher
Temps réel
Crépuscule civil
Crépuscule nautique
Crépuscule astronomique
Lune
Durée de lumière visible
Longueur du jour
Tomorrow will be .
, % of the Moon is Illuminated

Extrêmes aujourd'hui

State Highs State Lows

Community

WunderPhotos

Upload Photos

1,808,768 Photos téléchargées !

WunderBlogs® & News

Nearby

Qualité de l'air

  Qualité de l'air Indice de la qualité de l'air Polluant
Not available.

Épaisseur de neige

Station Depth Altitude

Activité sismique

Ville Distance Mag. Time & Date
Minimum magnitude displayed is 2.5.

Températures des eaux côtières

Lieu Température

Stations

Stations météo à proximité

Emplacement de la station Température Refroidissement éolien Point de rosée Humidité Vent Precip. Alt. Mise à jour Type